Miami, Florida
Traffic Map
Current Weather Conditions
Miami, Florida
Few Clouds
Few Clouds
21°
Feels Like: 21°
Wind Chill: 21° Ceiling: Unl
Heat Index: 21° Visibility: 10mi
Dew Point: 19° Wind: 7mph
Humidity: 87% Direction: 230° (SW)
Pressure: 29.97in Gusts: 0mph
Raw Report DataKMIA 280353Z 23006KT 10SM FEW120 21/19 A2997 RMK AO2 SLP147 T02110189
Traffic Incident Summary
Active as of:
Severity:
Category:
InformationThere was an issue retrieving the traffic information for this location. Please try a different location or try again shortly.
Advertisements
Track Severe Weather on mobile